sensor_id;sensor_type;location;lat;lon;timestamp;temperature;humidity
6758;DHT22;3416;53.074;8.822;2023-02-01T00:00:49;6.60;99.90
6758;DHT22;3416;53.074;8.822;2023-02-01T00:03:24;6.60;99.90
6758;DHT22;3416;53.074;8.822;2023-02-01T00:06:08;6.60;99.90
6758;DHT22;3416;53.074;8.822;2023-02-01T00:08:35;6.70;99.90
6758;DHT22;3416;53.074;8.822;2023-02-01T00:14:27;6.60;99.90
6758;DHT22;3416;53.074;8.822;2023-02-01T00:17:00;6.60;99.90
6758;DHT22;3416;53.074;8.822;2023-02-01T00:19:27;6.70;99.90
6758;DHT22;3416;53.074;8.822;2023-02-01T00:22:26;6.70;99.90
6758;DHT22;3416;53.074;8.822;2023-02-01T00:28:41;6.70;99.90
6758;DHT22;3416;53.074;8.822;2023-02-01T00:31:08;6.70;99.90
6758;DHT22;3416;53.074;8.822;2023-02-01T00:33:37;6.70;99.90
6758;DHT22;3416;53.074;8.822;2023-02-01T00:36:06;6.80;99.90
6758;DHT22;3416;53.074;8.822;2023-02-01T00:38:37;6.80;99.90
6758;DHT22;3416;53.074;8.822;2023-02-01T00:41:05;6.80;99.90
6758;DHT22;3416;53.074;8.822;2023-02-01T00:43:33;6.80;99.90
6758;DHT22;3416;53.074;8.822;2023-02-01T00:46:00;6.80;99.90
6758;DHT22;3416;53.074;8.822;2023-02-01T00:48:28;6.80;99.90
6758;DHT22;3416;53.074;8.822;2023-02-01T00:50:59;6.80;99.90
6758;DHT22;3416;53.074;8.822;2023-02-01T00:53:26;6.90;99.90
6758;DHT22;3416;53.074;8.822;2023-02-01T00:55:57;6.90;99.90
6758;DHT22;3416;53.074;8.822;2023-02-01T00:58:24;6.90;99.90
6758;DHT22;3416;53.074;8.822;2023-02-01T01:01:01;6.90;99.90
6758;DHT22;3416;53.074;8.822;2023-02-01T01:03:29;6.90;99.90
6758;DHT22;3416;53.074;8.822;2023-02-01T01:06:00;6.90;99.90
6758;DHT22;3416;53.074;8.822;2023-02-01T01:08:27;7.00;99.90
6758;DHT22;3416;53.074;8.822;2023-02-01T01:10:56;6.90;99.90
6758;DHT22;3416;53.074;8.822;2023-02-01T01:13:23;6.90;99.90
6758;DHT22;3416;53.074;8.822;2023-02-01T01:15:50;6.90;99.90
6758;DHT22;3416;53.074;8.822;2023-02-01T01:18:17;6.90;99.90
6758;DHT22;3416;53.074;8.822;2023-02-01T01:20:44;6.90;99.90
6758;DHT22;3416;53.074;8.822;2023-02-01T01:23:10;6.90;99.90
6758;DHT22;3416;53.074;8.822;2023-02-01T01:25:38;6.90;99.90
6758;DHT22;3416;53.074;8.822;2023-02-01T01:28:07;6.90;99.90
6758;DHT22;3416;53.074;8.822;2023-02-01T01:30:34;6.80;99.90
6758;DHT22;3416;53.074;8.822;2023-02-01T01:33:01;6.90;99.90
6758;DHT22;3416;53.074;8.822;2023-02-01T01:35:29;6.90;99.90
6758;DHT22;3416;53.074;8.822;2023-02-01T01:37:57;7.00;99.90
6758;DHT22;3416;53.074;8.822;2023-02-01T01:40:26;6.90;99.90
6758;DHT22;3416;53.074;8.822;2023-02-01T01:42:53;6.90;99.90
6758;DHT22;3416;53.074;8.822;2023-02-01T01:45:25;7.00;99.90
6758;DHT22;3416;53.074;8.822;2023-02-01T01:47:54;6.90;99.90
6758;DHT22;3416;53.074;8.822;2023-02-01T01:50:24;6.90;99.90
6758;DHT22;3416;53.074;8.822;2023-02-01T01:52:53;6.90;99.90
6758;DHT22;3416;53.074;8.822;2023-02-01T01:55:22;7.00;99.90
6758;DHT22;3416;53.074;8.822;2023-02-01T01:57:55;6.90;99.90
6758;DHT22;3416;53.074;8.822;2023-02-01T02:00:25;7.00;99.90
6758;DHT22;3416;53.074;8.822;2023-02-01T02:02:55;7.00;99.90
6758;DHT22;3416;53.074;8.822;2023-02-01T02:05:23;7.00;99.90
6758;DHT22;3416;53.074;8.822;2023-02-01T02:07:52;7.00;99.90
6758;DHT22;3416;53.074;8.822;2023-02-01T02:10:20;7.00;99.90
6758;DHT22;3416;53.074;8.822;2023-02-01T02:13:07;7.00;99.90
6758;DHT22;3416;53.074;8.822;2023-02-01T02:15:37;7.00;99.90
6758;DHT22;3416;53.074;8.822;2023-02-01T02:18:12;7.00;99.90
6758;DHT22;3416;53.074;8.822;2023-02-01T02:24:21;6.90;99.90
6758;DHT22;3416;53.074;8.822;2023-02-01T02:27:00;6.90;99.90
6758;DHT22;3416;53.074;8.822;2023-02-01T02:36:20;6.80;99.90
6758;DHT22;3416;53.074;8.822;2023-02-01T02:38:58;6.80;99.90
6758;DHT22;3416;53.074;8.822;2023-02-01T02:41:31;6.80;99.90
6758;DHT22;3416;53.074;8.822;2023-02-01T02:44:23;6.80;99.90
6758;DHT22;3416;53.074;8.822;2023-02-01T02:47:26;6.80;99.90
6758;DHT22;3416;53.074;8.822;2023-02-01T02:50:04;6.80;99.90
6758;DHT22;3416;53.074;8.822;2023-02-01T02:52:53;6.90;99.90
6758;DHT22;3416;53.074;8.822;2023-02-01T02:55:41;6.80;99.90
6758;DHT22;3416;53.074;8.822;2023-02-01T02:58:11;6.80;99.90
6758;DHT22;3416;53.074;8.822;2023-02-01T03:00:57;6.80;99.90
6758;DHT22;3416;53.074;8.822;2023-02-01T03:03:42;6.80;99.90
6758;DHT22;3416;53.074;8.822;2023-02-01T03:06:36;6.80;99.90
6758;DHT22;3416;53.074;8.822;2023-02-01T03:09:08;6.90;99.90
6758;DHT22;3416;53.074;8.822;2023-02-01T03:11:36;6.80;99.90
6758;DHT22;3416;53.074;8.822;2023-02-01T03:14:22;6.80;99.90
6758;DHT22;3416;53.074;8.822;2023-02-01T03:16:54;6.70;99.90
6758;DHT22;3416;53.074;8.822;2023-02-01T03:19:28;6.70;99.90
6758;DHT22;3416;53.074;8.822;2023-02-01T03:21:59;6.80;99.90
6758;DHT22;3416;53.074;8.822;2023-02-01T03:24:31;6.80;99.90
6758;DHT22;3416;53.074;8.822;2023-02-01T03:27:10;6.80;99.90
6758;DHT22;3416;53.074;8.822;2023-02-01T03:29:44;6.70;99.90
6758;DHT22;3416;53.074;8.822;2023-02-01T03:32:12;6.70;99.90
6758;DHT22;3416;53.074;8.822;2023-02-01T03:34:39;6.70;99.90
6758;DHT22;3416;53.074;8.822;2023-02-01T03:37:09;6.60;99.90
6758;DHT22;3416;53.074;8.822;2023-02-01T03:39:41;6.50;99.90
6758;DHT22;3416;53.074;8.822;2023-02-01T03:42:16;6.40;99.90
6758;DHT22;3416;53.074;8.822;2023-02-01T03:44:49;6.40;99.90
6758;DHT22;3416;53.074;8.822;2023-02-01T03:47:19;6.40;99.90
6758;DHT22;3416;53.074;8.822;2023-02-01T03:49:50;6.30;99.90
6758;DHT22;3416;53.074;8.822;2023-02-01T03:52:25;6.30;99.90
6758;DHT22;3416;53.074;8.822;2023-02-01T03:54:53;6.20;99.90
6758;DHT22;3416;53.074;8.822;2023-02-01T03:57:25;6.20;99.90
6758;DHT22;3416;53.074;8.822;2023-02-01T03:59:53;6.10;99.90
6758;DHT22;3416;53.074;8.822;2023-02-01T04:02:20;6.10;99.90
6758;DHT22;3416;53.074;8.822;2023-02-01T04:04:47;6.00;99.90
6758;DHT22;3416;53.074;8.822;2023-02-01T04:07:14;6.00;99.90
6758;DHT22;3416;53.074;8.822;2023-02-01T04:09:43;6.00;99.90
6758;DHT22;3416;53.074;8.822;2023-02-01T04:12:10;5.90;99.90
6758;DHT22;3416;53.074;8.822;2023-02-01T04:14:37;6.00;99.90
6758;DHT22;3416;53.074;8.822;2023-02-01T04:17:04;5.90;99.90
6758;DHT22;3416;53.074;8.822;2023-02-01T04:19:31;5.90;99.90
6758;DHT22;3416;53.074;8.822;2023-02-01T04:21:58;5.80;99.90
6758;DHT22;3416;53.074;8.822;2023-02-01T04:24:25;5.80;99.90
6758;DHT22;3416;53.074;8.822;2023-02-01T04:26:53;5.80;99.90
6758;DHT22;3416;53.074;8.822;2023-02-01T04:29:20;5.80;99.90
6758;DHT22;3416;53.074;8.822;2023-02-01T04:31:47;5.80;99.90
6758;DHT22;3416;53.074;8.822;2023-02-01T04:34:14;5.80;99.90
6758;DHT22;3416;53.074;8.822;2023-02-01T04:36:41;5.80;99.90
6758;DHT22;3416;53.074;8.822;2023-02-01T04:39:08;5.90;99.90
6758;DHT22;3416;53.074;8.822;2023-02-01T04:41:35;5.90;99.90
6758;DHT22;3416;53.074;8.822;2023-02-01T04:44:04;5.90;99.90
6758;DHT22;3416;53.074;8.822;2023-02-01T04:46:31;5.90;99.90
6758;DHT22;3416;53.074;8.822;2023-02-01T04:48:58;5.90;99.90
6758;DHT22;3416;53.074;8.822;2023-02-01T04:51:26;6.00;99.90
6758;DHT22;3416;53.074;8.822;2023-02-01T04:53:52;6.00;99.90
6758;DHT22;3416;53.074;8.822;2023-02-01T04:56:21;6.00;99.90
6758;DHT22;3416;53.074;8.822;2023-02-01T04:58:48;6.00;99.90
6758;DHT22;3416;53.074;8.822;2023-02-01T05:01:16;5.90;99.90
6758;DHT22;3416;53.074;8.822;2023-02-01T05:03:43;6.10;99.90
6758;DHT22;3416;53.074;8.822;2023-02-01T05:06:10;6.10;99.90
6758;DHT22;3416;53.074;8.822;2023-02-01T05:08:37;6.10;99.90
6758;DHT22;3416;53.074;8.822;2023-02-01T05:11:04;6.10;99.90
6758;DHT22;3416;53.074;8.822;2023-02-01T05:13:31;6.10;99.90
6758;DHT22;3416;53.074;8.822;2023-02-01T05:16:17;6.10;99.90
6758;DHT22;3416;53.074;8.822;2023-02-01T05:18:44;6.10;99.90
6758;DHT22;3416;53.074;8.822;2023-02-01T05:21:10;6.10;99.90
6758;DHT22;3416;53.074;8.822;2023-02-01T05:23:37;6.10;99.90
6758;DHT22;3416;53.074;8.822;2023-02-01T05:26:18;6.20;99.90
6758;DHT22;3416;53.074;8.822;2023-02-01T05:28:45;6.10;99.90
6758;DHT22;3416;53.074;8.822;2023-02-01T05:31:12;6.10;99.90
6758;DHT22;3416;53.074;8.822;2023-02-01T05:33:40;6.10;99.90
6758;DHT22;3416;53.074;8.822;2023-02-01T05:36:07;6.10;99.90
6758;DHT22;3416;53.074;8.822;2023-02-01T05:38:34;6.20;99.90
6758;DHT22;3416;53.074;8.822;2023-02-01T05:41:02;6.20;99.90
6758;DHT22;3416;53.074;8.822;2023-02-01T05:43:29;6.30;99.90
6758;DHT22;3416;53.074;8.822;2023-02-01T05:45:56;6.20;99.90
6758;DHT22;3416;53.074;8.822;2023-02-01T05:48:23;6.20;99.90
6758;DHT22;3416;53.074;8.822;2023-02-01T05:50:51;6.20;99.90
6758;DHT22;3416;53.074;8.822;2023-02-01T05:53:18;6.30;99.90
6758;DHT22;3416;53.074;8.822;2023-02-01T05:55:45;6.30;99.90
6758;DHT22;3416;53.074;8.822;2023-02-01T05:58:14;6.30;99.90
6758;DHT22;3416;53.074;8.822;2023-02-01T06:00:41;6.30;99.90
6758;DHT22;3416;53.074;8.822;2023-02-01T06:03:08;6.30;99.90
6758;DHT22;3416;53.074;8.822;2023-02-01T06:05:35;6.30;99.90
6758;DHT22;3416;53.074;8.822;2023-02-01T06:08:04;6.20;99.90
6758;DHT22;3416;53.074;8.822;2023-02-01T06:10:33;6.20;99.90
6758;DHT22;3416;53.074;8.822;2023-02-01T06:13:01;6.20;99.90
6758;DHT22;3416;53.074;8.822;2023-02-01T06:15:29;6.10;99.90
6758;DHT22;3416;53.074;8.822;2023-02-01T06:17:57;6.20;99.90
6758;DHT22;3416;53.074;8.822;2023-02-01T06:20:24;6.20;99.90
6758;DHT22;3416;53.074;8.822;2023-02-01T06:22:52;6.20;99.90
6758;DHT22;3416;53.074;8.822;2023-02-01T06:25:20;6.30;99.90
6758;DHT22;3416;53.074;8.822;2023-02-01T06:27:48;6.30;99.90
6758;DHT22;3416;53.074;8.822;2023-02-01T06:30:15;6.30;99.90
6758;DHT22;3416;53.074;8.822;2023-02-01T06:32:43;6.30;99.90
6758;DHT22;3416;53.074;8.822;2023-02-01T06:35:10;6.30;99.90
6758;DHT22;3416;53.074;8.822;2023-02-01T06:37:41;6.30;99.90
6758;DHT22;3416;53.074;8.822;2023-02-01T06:40:10;6.30;99.90
6758;DHT22;3416;53.074;8.822;2023-02-01T06:42:39;6.30;99.90
6758;DHT22;3416;53.074;8.822;2023-02-01T06:45:06;6.30;99.90
6758;DHT22;3416;53.074;8.822;2023-02-01T06:47:33;6.30;99.90
6758;DHT22;3416;53.074;8.822;2023-02-01T06:50:00;6.40;99.90
6758;DHT22;3416;53.074;8.822;2023-02-01T06:52:27;6.40;99.90
6758;DHT22;3416;53.074;8.822;2023-02-01T06:54:54;6.40;99.90
6758;DHT22;3416;53.074;8.822;2023-02-01T06:57:21;6.40;99.90
6758;DHT22;3416;53.074;8.822;2023-02-01T06:59:49;6.40;99.90
6758;DHT22;3416;53.074;8.822;2023-02-01T07:02:16;6.50;99.90
6758;DHT22;3416;53.074;8.822;2023-02-01T07:04:43;6.50;99.90
6758;DHT22;3416;53.074;8.822;2023-02-01T07:07:10;6.60;99.90
6758;DHT22;3416;53.074;8.822;2023-02-01T07:09:37;6.60;99.90
6758;DHT22;3416;53.074;8.822;2023-02-01T07:12:05;6.50;99.90
6758;DHT22;3416;53.074;8.822;2023-02-01T07:14:32;6.40;99.90
6758;DHT22;3416;53.074;8.822;2023-02-01T07:17:01;6.30;99.90
6758;DHT22;3416;53.074;8.822;2023-02-01T07:19:29;6.10;99.90
6758;DHT22;3416;53.074;8.822;2023-02-01T07:21:56;6.00;99.90
6758;DHT22;3416;53.074;8.822;2023-02-01T07:24:23;6.00;99.90
6758;DHT22;3416;53.074;8.822;2023-02-01T07:26:49;6.00;99.90
6758;DHT22;3416;53.074;8.822;2023-02-01T07:29:17;6.00;99.90
6758;DHT22;3416;53.074;8.822;2023-02-01T07:31:44;6.00;99.90
6758;DHT22;3416;53.074;8.822;2023-02-01T07:34:13;6.10;99.90
6758;DHT22;3416;53.074;8.822;2023-02-01T07:36:40;6.10;99.90
6758;DHT22;3416;53.074;8.822;2023-02-01T07:39:08;6.20;99.90
6758;DHT22;3416;53.074;8.822;2023-02-01T07:41:35;6.20;99.90
6758;DHT22;3416;53.074;8.822;2023-02-01T07:44:02;6.20;99.90
6758;DHT22;3416;53.074;8.822;2023-02-01T07:46:29;6.30;99.90
6758;DHT22;3416;53.074;8.822;2023-02-01T07:48:56;6.20;99.90
6758;DHT22;3416;53.074;8.822;2023-02-01T07:51:24;6.20;99.90
6758;DHT22;3416;53.074;8.822;2023-02-01T07:53:52;6.20;99.90
6758;DHT22;3416;53.074;8.822;2023-02-01T07:56:20;6.20;99.90
6758;DHT22;3416;53.074;8.822;2023-02-01T07:58:48;6.30;99.90
6758;DHT22;3416;53.074;8.822;2023-02-01T08:01:16;6.30;99.90
6758;DHT22;3416;53.074;8.822;2023-02-01T08:03:51;6.30;99.90
6758;DHT22;3416;53.074;8.822;2023-02-01T08:06:19;6.40;99.90
6758;DHT22;3416;53.074;8.822;2023-02-01T08:08:48;6.50;99.90
6758;DHT22;3416;53.074;8.822;2023-02-01T08:11:19;6.40;99.90
6758;DHT22;3416;53.074;8.822;2023-02-01T08:13:46;6.50;99.90
6758;DHT22;3416;53.074;8.822;2023-02-01T08:16:16;6.70;99.90
6758;DHT22;3416;53.074;8.822;2023-02-01T08:18:44;6.70;99.90
6758;DHT22;3416;53.074;8.822;2023-02-01T08:21:13;6.70;99.90
6758;DHT22;3416;53.074;8.822;2023-02-01T08:23:42;6.70;99.90
6758;DHT22;3416;53.074;8.822;2023-02-01T08:26:12;6.70;99.90
6758;DHT22;3416;53.074;8.822;2023-02-01T08:28:42;6.80;99.90
6758;DHT22;3416;53.074;8.822;2023-02-01T08:31:11;6.80;99.90
6758;DHT22;3416;53.074;8.822;2023-02-01T08:33:41;7.20;99.90
6758;DHT22;3416;53.074;8.822;2023-02-01T08:36:10;7.70;99.90
6758;DHT22;3416;53.074;8.822;2023-02-01T08:38:44;8.00;99.90
6758;DHT22;3416;53.074;8.822;2023-02-01T08:41:14;8.60;99.90
6758;DHT22;3416;53.074;8.822;2023-02-01T08:43:59;9.20;99.90
6758;DHT22;3416;53.074;8.822;2023-02-01T08:46:26;9.70;99.90
6758;DHT22;3416;53.074;8.822;2023-02-01T08:48:55;10.20;99.90
6758;DHT22;3416;53.074;8.822;2023-02-01T08:51:23;10.20;99.90
6758;DHT22;3416;53.074;8.822;2023-02-01T08:53:51;9.40;99.90
6758;DHT22;3416;53.074;8.822;2023-02-01T08:56:20;9.00;99.90
6758;DHT22;3416;53.074;8.822;2023-02-01T08:58:47;8.70;99.90
6758;DHT22;3416;53.074;8.822;2023-02-01T09:01:15;8.20;99.90
6758;DHT22;3416;53.074;8.822;2023-02-01T09:03:43;7.90;99.90
6758;DHT22;3416;53.074;8.822;2023-02-01T09:06:11;7.80;99.90
6758;DHT22;3416;53.074;8.822;2023-02-01T09:08:39;7.60;99.90
6758;DHT22;3416;53.074;8.822;2023-02-01T09:11:08;7.60;99.90
6758;DHT22;3416;53.074;8.822;2023-02-01T09:13:38;7.40;99.90
6758;DHT22;3416;53.074;8.822;2023-02-01T09:16:06;7.40;99.90
6758;DHT22;3416;53.074;8.822;2023-02-01T09:18:34;7.40;99.90
6758;DHT22;3416;53.074;8.822;2023-02-01T09:21:04;7.40;99.90
6758;DHT22;3416;53.074;8.822;2023-02-01T09:23:31;7.30;99.90
6758;DHT22;3416;53.074;8.822;2023-02-01T09:25:59;7.50;99.90
6758;DHT22;3416;53.074;8.822;2023-02-01T09:28:26;7.50;99.90
6758;DHT22;3416;53.074;8.822;2023-02-01T09:30:57;7.60;99.90
6758;DHT22;3416;53.074;8.822;2023-02-01T09:33:24;7.70;99.90
6758;DHT22;3416;53.074;8.822;2023-02-01T09:35:55;7.60;99.90
6758;DHT22;3416;53.074;8.822;2023-02-01T09:38:22;7.60;99.90
6758;DHT22;3416;53.074;8.822;2023-02-01T09:40:51;7.60;99.90
6758;DHT22;3416;53.074;8.822;2023-02-01T09:43:25;7.60;99.90
6758;DHT22;3416;53.074;8.822;2023-02-01T09:46:02;7.60;99.90
6758;DHT22;3416;53.074;8.822;2023-02-01T09:48:34;7.50;99.90
6758;DHT22;3416;53.074;8.822;2023-02-01T09:51:06;7.40;99.90
6758;DHT22;3416;53.074;8.822;2023-02-01T09:53:41;7.40;99.90
6758;DHT22;3416;53.074;8.822;2023-02-01T09:58:43;7.40;99.90
6758;DHT22;3416;53.074;8.822;2023-02-01T10:01:18;7.50;99.90
6758;DHT22;3416;53.074;8.822;2023-02-01T10:03:46;7.40;99.90
6758;DHT22;3416;53.074;8.822;2023-02-01T10:06:23;7.60;99.90
6758;DHT22;3416;53.074;8.822;2023-02-01T10:15:19;7.40;99.90
6758;DHT22;3416;53.074;8.822;2023-02-01T10:18:00;7.40;99.90
6758;DHT22;3416;53.074;8.822;2023-02-01T10:20:33;7.40;99.90
6758;DHT22;3416;53.074;8.822;2023-02-01T10:23:10;7.40;99.90
6758;DHT22;3416;53.074;8.822;2023-02-01T10:25:50;7.40;99.90
6758;DHT22;3416;53.074;8.822;2023-02-01T10:28:18;7.50;99.90
6758;DHT22;3416;53.074;8.822;2023-02-01T10:30:48;7.50;99.90
6758;DHT22;3416;53.074;8.822;2023-02-01T10:33:18;7.50;99.90
6758;DHT22;3416;53.074;8.822;2023-02-01T10:35:46;7.40;99.90
6758;DHT22;3416;53.074;8.822;2023-02-01T10:38:27;7.40;99.90
6758;DHT22;3416;53.074;8.822;2023-02-01T10:40:57;7.40;99.90
6758;DHT22;3416;53.074;8.822;2023-02-01T10:43:28;7.30;99.90
6758;DHT22;3416;53.074;8.822;2023-02-01T10:45:56;7.20;99.90
6758;DHT22;3416;53.074;8.822;2023-02-01T10:48:25;7.10;99.90
6758;DHT22;3416;53.074;8.822;2023-02-01T10:50:56;7.10;99.90
6758;DHT22;3416;53.074;8.822;2023-02-01T10:53:28;7.00;99.90
6758;DHT22;3416;53.074;8.822;2023-02-01T10:55:58;7.00;99.90
6758;DHT22;3416;53.074;8.822;2023-02-01T10:58:32;7.00;99.90
6758;DHT22;3416;53.074;8.822;2023-02-01T11:01:02;6.80;99.90
6758;DHT22;3416;53.074;8.822;2023-02-01T11:03:37;6.90;99.90
6758;DHT22;3416;53.074;8.822;2023-02-01T11:06:13;6.80;99.90
6758;DHT22;3416;53.074;8.822;2023-02-01T11:08:47;6.70;99.90
6758;DHT22;3416;53.074;8.822;2023-02-01T11:11:14;6.70;99.90
6758;DHT22;3416;53.074;8.822;2023-02-01T11:13:41;6.80;99.90
6758;DHT22;3416;53.074;8.822;2023-02-01T11:16:13;6.80;99.90
6758;DHT22;3416;53.074;8.822;2023-02-01T11:18:42;6.70;99.90
6758;DHT22;3416;53.074;8.822;2023-02-01T11:21:11;6.60;99.90
6758;DHT22;3416;53.074;8.822;2023-02-01T11:23:43;6.60;99.90
6758;DHT22;3416;53.074;8.822;2023-02-01T11:26:13;6.60;99.90
6758;DHT22;3416;53.074;8.822;2023-02-01T11:28:48;6.60;99.90
6758;DHT22;3416;53.074;8.822;2023-02-01T11:31:18;6.60;99.90
6758;DHT22;3416;53.074;8.822;2023-02-01T11:33:50;6.60;99.90
6758;DHT22;3416;53.074;8.822;2023-02-01T11:36:22;6.50;99.90
6758;DHT22;3416;53.074;8.822;2023-02-01T11:39:18;6.50;99.90
6758;DHT22;3416;53.074;8.822;2023-02-01T11:41:57;6.40;99.90
6758;DHT22;3416;53.074;8.822;2023-02-01T11:44:31;6.30;99.90
6758;DHT22;3416;53.074;8.822;2023-02-01T11:47:20;6.10;99.90
6758;DHT22;3416;53.074;8.822;2023-02-01T11:49:50;6.00;99.90
6758;DHT22;3416;53.074;8.822;2023-02-01T11:52:26;6.00;99.90
6758;DHT22;3416;53.074;8.822;2023-02-01T11:55:08;6.00;99.90
6758;DHT22;3416;53.074;8.822;2023-02-01T11:57:48;5.90;99.90
6758;DHT22;3416;53.074;8.822;2023-02-01T12:00:35;5.90;99.90
6758;DHT22;3416;53.074;8.822;2023-02-01T12:06:19;5.90;99.90
6758;DHT22;3416;53.074;8.822;2023-02-01T12:09:11;5.90;99.90
6758;DHT22;3416;53.074;8.822;2023-02-01T12:11:57;5.90;99.90
6758;DHT22;3416;53.074;8.822;2023-02-01T12:14:48;5.90;99.90
6758;DHT22;3416;53.074;8.822;2023-02-01T12:17:37;5.90;99.90
6758;DHT22;3416;53.074;8.822;2023-02-01T12:20:25;6.00;99.90
6758;DHT22;3416;53.074;8.822;2023-02-01T12:23:06;6.10;99.90
6758;DHT22;3416;53.074;8.822;2023-02-01T12:25:52;5.90;99.90
6758;DHT22;3416;53.074;8.822;2023-02-01T12:28:41;5.60;99.90
6758;DHT22;3416;53.074;8.822;2023-02-01T12:34:35;5.30;99.90
6758;DHT22;3416;53.074;8.822;2023-02-01T12:37:13;5.20;99.90
6758;DHT22;3416;53.074;8.822;2023-02-01T12:39:53;5.10;99.90
6758;DHT22;3416;53.074;8.822;2023-02-01T12:42:26;5.00;99.90
6758;DHT22;3416;53.074;8.822;2023-02-01T12:45:01;5.00;99.90
6758;DHT22;3416;53.074;8.822;2023-02-01T12:47:32;5.00;99.90
6758;DHT22;3416;53.074;8.822;2023-02-01T12:50:02;5.10;99.90
6758;DHT22;3416;53.074;8.822;2023-02-01T12:52:35;5.20;99.90
6758;DHT22;3416;53.074;8.822;2023-02-01T12:55:10;5.20;99.90
6758;DHT22;3416;53.074;8.822;2023-02-01T12:57:45;5.30;99.90
6758;DHT22;3416;53.074;8.822;2023-02-01T13:00:18;5.30;99.90
6758;DHT22;3416;53.074;8.822;2023-02-01T13:02:54;5.30;99.90
6758;DHT22;3416;53.074;8.822;2023-02-01T13:05:24;5.40;99.90
6758;DHT22;3416;53.074;8.822;2023-02-01T13:08:00;5.50;99.90
6758;DHT22;3416;53.074;8.822;2023-02-01T13:10:33;5.50;99.90
6758;DHT22;3416;53.074;8.822;2023-02-01T13:13:07;5.50;99.90
6758;DHT22;3416;53.074;8.822;2023-02-01T13:15:39;5.50;99.90
6758;DHT22;3416;53.074;8.822;2023-02-01T13:18:14;5.40;99.90
6758;DHT22;3416;53.074;8.822;2023-02-01T13:20:47;5.30;99.90
6758;DHT22;3416;53.074;8.822;2023-02-01T13:23:23;5.20;99.90
6758;DHT22;3416;53.074;8.822;2023-02-01T13:25:54;5.10;99.90
6758;DHT22;3416;53.074;8.822;2023-02-01T13:28:26;5.20;99.90
6758;DHT22;3416;53.074;8.822;2023-02-01T13:31:16;5.20;99.90
6758;DHT22;3416;53.074;8.822;2023-02-01T13:33:58;5.20;99.90
6758;DHT22;3416;53.074;8.822;2023-02-01T13:36:35;5.30;99.90
6758;DHT22;3416;53.074;8.822;2023-02-01T13:39:45;5.50;99.90
6758;DHT22;3416;53.074;8.822;2023-02-01T13:42:19;5.70;99.90
6758;DHT22;3416;53.074;8.822;2023-02-01T13:44:49;5.90;99.90
6758;DHT22;3416;53.074;8.822;2023-02-01T13:47:24;6.00;99.90
6758;DHT22;3416;53.074;8.822;2023-02-01T13:49:54;6.10;99.90
6758;DHT22;3416;53.074;8.822;2023-02-01T13:52:36;6.20;99.90
6758;DHT22;3416;53.074;8.822;2023-02-01T13:55:24;6.20;99.90
6758;DHT22;3416;53.074;8.822;2023-02-01T13:58:11;6.30;99.90
6758;DHT22;3416;53.074;8.822;2023-02-01T14:00:40;6.50;99.90
6758;DHT22;3416;53.074;8.822;2023-02-01T14:03:16;6.50;99.90
6758;DHT22;3416;53.074;8.822;2023-02-01T14:06:02;6.60;99.90
6758;DHT22;3416;53.074;8.822;2023-02-01T14:09:11;6.60;99.90
6758;DHT22;3416;53.074;8.822;2023-02-01T14:11:41;6.60;99.90
6758;DHT22;3416;53.074;8.822;2023-02-01T14:17:35;6.50;99.90
6758;DHT22;3416;53.074;8.822;2023-02-01T14:23:38;6.60;99.90
6758;DHT22;3416;53.074;8.822;2023-02-01T14:26:12;6.60;99.90
6758;DHT22;3416;53.074;8.822;2023-02-01T14:28:58;6.60;99.90
6758;DHT22;3416;53.074;8.822;2023-02-01T14:31:42;6.60;99.90
6758;DHT22;3416;53.074;8.822;2023-02-01T14:34:18;6.60;99.90
6758;DHT22;3416;53.074;8.822;2023-02-01T14:36:54;6.80;99.90
6758;DHT22;3416;53.074;8.822;2023-02-01T14:39:26;6.90;99.90
6758;DHT22;3416;53.074;8.822;2023-02-01T14:41:56;6.80;99.90
6758;DHT22;3416;53.074;8.822;2023-02-01T14:44:32;6.80;99.90
6758;DHT22;3416;53.074;8.822;2023-02-01T14:47:07;6.80;99.90
6758;DHT22;3416;53.074;8.822;2023-02-01T14:49:39;6.80;99.90
6758;DHT22;3416;53.074;8.822;2023-02-01T14:52:14;7.00;99.90
6758;DHT22;3416;53.074;8.822;2023-02-01T14:54:46;7.10;99.90
6758;DHT22;3416;53.074;8.822;2023-02-01T14:57:17;7.20;99.90
6758;DHT22;3416;53.074;8.822;2023-02-01T14:59:45;7.20;99.90
6758;DHT22;3416;53.074;8.822;2023-02-01T15:02:20;7.10;99.90
6758;DHT22;3416;53.074;8.822;2023-02-01T15:04:54;7.20;99.90
6758;DHT22;3416;53.074;8.822;2023-02-01T15:07:24;7.20;99.90
6758;DHT22;3416;53.074;8.822;2023-02-01T15:09:53;7.30;99.90
6758;DHT22;3416;53.074;8.822;2023-02-01T15:12:24;7.30;99.90
6758;DHT22;3416;53.074;8.822;2023-02-01T15:15:14;7.40;99.90
6758;DHT22;3416;53.074;8.822;2023-02-01T15:17:50;7.30;99.90
6758;DHT22;3416;53.074;8.822;2023-02-01T15:20:20;7.30;99.90
6758;DHT22;3416;53.074;8.822;2023-02-01T15:23:00;7.30;99.90
6758;DHT22;3416;53.074;8.822;2023-02-01T15:25:29;7.30;99.90
6758;DHT22;3416;53.074;8.822;2023-02-01T15:27:57;7.30;99.90
6758;DHT22;3416;53.074;8.822;2023-02-01T15:30:26;7.30;99.90
6758;DHT22;3416;53.074;8.822;2023-02-01T15:33:05;7.40;99.90
6758;DHT22;3416;53.074;8.822;2023-02-01T15:35:40;7.50;99.90
6758;DHT22;3416;53.074;8.822;2023-02-01T15:38:33;7.50;99.90
6758;DHT22;3416;53.074;8.822;2023-02-01T15:41:07;7.60;99.90
6758;DHT22;3416;53.074;8.822;2023-02-01T15:43:37;7.70;99.90
6758;DHT22;3416;53.074;8.822;2023-02-01T15:46:09;7.80;99.90
6758;DHT22;3416;53.074;8.822;2023-02-01T15:48:41;7.80;99.90
6758;DHT22;3416;53.074;8.822;2023-02-01T15:51:14;7.70;99.90
6758;DHT22;3416;53.074;8.822;2023-02-01T15:53:50;7.80;99.90
6758;DHT22;3416;53.074;8.822;2023-02-01T15:58:53;7.70;99.90
6758;DHT22;3416;53.074;8.822;2023-02-01T16:01:20;7.70;99.90
6758;DHT22;3416;53.074;8.822;2023-02-01T16:03:47;7.70;99.90
6758;DHT22;3416;53.074;8.822;2023-02-01T16:06:29;7.80;99.90
6758;DHT22;3416;53.074;8.822;2023-02-01T16:09:03;7.80;99.90
6758;DHT22;3416;53.074;8.822;2023-02-01T16:11:31;7.90;99.90
6758;DHT22;3416;53.074;8.822;2023-02-01T16:13:59;7.70;99.90
6758;DHT22;3416;53.074;8.822;2023-02-01T16:16:27;7.50;99.90
6758;DHT22;3416;53.074;8.822;2023-02-01T16:18:54;7.30;99.90
6758;DHT22;3416;53.074;8.822;2023-02-01T16:21:21;6.90;99.90
6758;DHT22;3416;53.074;8.822;2023-02-01T16:23:50;6.60;99.90
6758;DHT22;3416;53.074;8.822;2023-02-01T16:26:18;6.50;99.90
6758;DHT22;3416;53.074;8.822;2023-02-01T16:28:45;6.40;99.90
6758;DHT22;3416;53.074;8.822;2023-02-01T16:31:15;6.40;99.90
6758;DHT22;3416;53.074;8.822;2023-02-01T16:33:46;6.40;99.90
6758;DHT22;3416;53.074;8.822;2023-02-01T16:36:13;6.40;99.90
6758;DHT22;3416;53.074;8.822;2023-02-01T16:38:41;6.40;99.90
6758;DHT22;3416;53.074;8.822;2023-02-01T16:41:12;6.50;99.90
6758;DHT22;3416;53.074;8.822;2023-02-01T16:43:40;6.50;99.90
6758;DHT22;3416;53.074;8.822;2023-02-01T16:46:13;6.50;99.90
6758;DHT22;3416;53.074;8.822;2023-02-01T16:48:42;6.50;99.90
6758;DHT22;3416;53.074;8.822;2023-02-01T16:51:13;6.50;99.90
6758;DHT22;3416;53.074;8.822;2023-02-01T16:53:43;6.40;99.90
6758;DHT22;3416;53.074;8.822;2023-02-01T16:56:16;6.40;99.90
6758;DHT22;3416;53.074;8.822;2023-02-01T16:58:44;6.40;99.90
6758;DHT22;3416;53.074;8.822;2023-02-01T17:01:17;6.50;99.90
6758;DHT22;3416;53.074;8.822;2023-02-01T17:03:44;6.50;99.90
6758;DHT22;3416;53.074;8.822;2023-02-01T17:06:14;6.60;99.90
6758;DHT22;3416;53.074;8.822;2023-02-01T17:08:43;6.60;99.90
6758;DHT22;3416;53.074;8.822;2023-02-01T17:11:11;6.60;99.90
6758;DHT22;3416;53.074;8.822;2023-02-01T17:13:40;6.60;99.90
6758;DHT22;3416;53.074;8.822;2023-02-01T17:16:20;6.60;99.90
6758;DHT22;3416;53.074;8.822;2023-02-01T17:18:52;6.50;99.90
6758;DHT22;3416;53.074;8.822;2023-02-01T17:21:20;6.50;99.90
6758;DHT22;3416;53.074;8.822;2023-02-01T17:23:47;6.40;99.90
6758;DHT22;3416;53.074;8.822;2023-02-01T17:26:16;6.40;99.90
6758;DHT22;3416;53.074;8.822;2023-02-01T17:28:44;6.50;99.90